Time;durP1;ratioP1;P1;durP2;ratioP2;P2;SDS_P1;SDS_P2;PMS_P1;PMS_P2;Temp;Humidity;BMP_temperature;BMP_pressure;BME280_temperature;BME280_humidity;BME280_pressure;Samples;Min_cycle;Max_cycle;Signal;HPM_P1;HPM_P2
2022/04/17 00:00:12;;;;;;;;;5.67;4.67;;;;;-147.47;100.00;64613.53;5035805;28;45368;-76
2022/04/17 00:02:38;;;;;;;;;5.00;5.00;;;;;-147.47;100.00;64613.53;5051054;28;46027;-73
2022/04/17 00:05:05;;;;;;;;;6.33;4.67;;;;;-147.47;100.00;64613.53;5034797;28;46419;-74
2022/04/17 00:07:31;;;;;;;;;6.33;4.33;;;;;-147.47;100.00;64613.53;5035357;28;45331;-72
2022/04/17 00:09:57;;;;;;;;;6.33;6.33;;;;;-147.47;100.00;64613.53;5035152;28;45372;-75
2022/04/17 00:12:23;;;;;;;;;6.00;4.67;;;;;-147.47;100.00;64613.53;5034956;28;45827;-73
2022/04/17 00:14:49;;;;;;;;;8.67;7.00;;;;;-147.47;100.00;64613.53;5034414;28;45454;-73
2022/04/17 00:17:15;;;;;;;;;4.67;3.33;;;;;-147.47;100.00;64613.53;5035124;28;45441;-74
2022/04/17 00:19:41;;;;;;;;;7.33;7.33;;;;;-147.47;100.00;64613.53;5033945;28;45757;-72
2022/04/17 00:22:06;;;;;;;;;8.67;5.00;;;;;-147.47;100.00;64613.53;5034747;28;45521;-73
2022/04/17 00:24:32;;;;;;;;;6.67;5.67;;;;;-147.47;100.00;64613.53;5035567;28;45776;-73
2022/04/17 00:26:59;;;;;;;;;6.00;6.00;;;;;-147.47;100.00;64613.53;5036846;28;45709;-71
2022/04/17 00:29:25;;;;;;;;;7.00;5.00;;;;;-147.47;100.00;64613.53;5037322;28;45810;-71
2022/04/17 00:31:51;;;;;;;;;6.00;6.00;;;;;-147.47;100.00;64613.53;5035561;28;45438;-71
2022/04/17 00:34:16;;;;;;;;;9.00;5.67;;;;;-147.47;100.00;64613.53;5037062;28;46005;-70
2022/04/17 00:36:42;;;;;;;;;5.67;4.00;;;;;-147.47;100.00;64613.53;5037879;28;45633;-72
2022/04/17 00:39:07;;;;;;;;;8.33;6.33;;;;;-147.47;100.00;64613.53;5037759;28;45388;-71
2022/04/17 00:41:33;;;;;;;;;7.33;7.33;;;;;-147.47;100.00;64613.53;5035994;28;46009;-70
2022/04/17 00:43:58;;;;;;;;;6.67;6.33;;;;;-147.47;100.00;64613.53;5036791;28;45741;-71
2022/04/17 00:46:23;;;;;;;;;6.67;6.33;;;;;-147.47;100.00;64613.53;5036541;28;45782;-69
2022/04/17 00:48:49;;;;;;;;;4.00;4.00;;;;;-147.47;100.00;64613.53;5051728;28;45565;-71
2022/04/17 00:51:16;;;;;;;;;7.67;7.00;;;;;-147.47;100.00;64613.53;5051212;28;45433;-72
2022/04/17 00:53:44;;;;;;;;;6.33;6.33;;;;;-147.47;100.00;64613.53;5036720;28;45534;-72
2022/04/17 00:56:10;;;;;;;;;4.33;4.00;;;;;-147.47;100.00;64613.53;5035993;28;45396;-72
2022/04/17 00:58:38;;;;;;;;;6.67;5.33;;;;;-147.47;100.00;64613.53;5035917;28;45454;-72
2022/04/17 01:01:04;;;;;;;;;4.67;3.33;;;;;-147.47;100.00;64613.53;5017182;28;45355;-71
2022/04/17 01:03:29;;;;;;;;;5.67;4.33;;;;;-147.47;100.00;64613.53;5034205;28;45432;-71
2022/04/17 01:05:56;;;;;;;;;9.00;4.67;;;;;-147.47;100.00;64613.53;5034684;28;45747;-71
2022/04/17 01:08:21;;;;;;;;;11.00;6.33;;;;;-147.47;100.00;64613.53;5034581;28;45585;-71
2022/04/17 01:10:47;;;;;;;;;8.67;5.67;;;;;-147.47;100.00;64613.53;5015391;28;45859;-71
2022/04/17 01:13:13;;;;;;;;;4.00;4.00;;;;;-147.47;100.00;64613.53;5030545;28;45434;-71
2022/04/17 01:15:38;;;;;;;;;5.67;5.33;;;;;-147.47;100.00;64613.53;5032918;28;45503;-71
2022/04/17 01:18:04;;;;;;;;;8.00;6.67;;;;;-147.47;100.00;64613.53;5050867;28;45355;-72
2022/04/17 01:20:30;;;;;;;;;10.33;8.33;;;;;-147.47;100.00;64613.53;5035224;28;45491;-74
2022/04/17 01:28:26;;;;;;;;;6.00;6.00;;;;;-147.47;100.00;64613.53;5035582;28;45435;-75
2022/04/17 01:30:56;;;;;;;;;6.00;6.00;;;;;-147.47;100.00;64613.53;5035102;28;45320;-73
2022/04/17 01:33:23;;;;;;;;;4.67;4.67;;;;;-147.47;100.00;64613.53;5034291;28;45714;-74
2022/04/17 01:35:49;;;;;;;;;5.67;4.33;;;;;-147.47;100.00;64613.53;5034151;28;45352;-73
2022/04/17 01:38:14;;;;;;;;;7.67;6.00;;;;;-147.47;100.00;64613.53;5050237;28;45669;-72
2022/04/17 01:40:40;;;;;;;;;6.00;6.00;;;;;-147.47;100.00;64613.53;5032898;28;45501;-73
2022/04/17 01:43:12;;;;;;;;;7.00;5.67;;;;;-147.47;100.00;64613.53;5033601;28;45339;-72
2022/04/17 01:45:38;;;;;;;;;6.67;5.67;;;;;-147.47;100.00;64613.53;5033486;28;45910;-74
2022/04/17 01:48:04;;;;;;;;;6.00;5.33;;;;;-147.47;100.00;64613.53;5032513;28;45462;-72
2022/04/17 01:50:30;;;;;;;;;6.67;6.67;;;;;-147.47;100.00;64613.53;5033220;28;45454;-73
2022/04/17 01:53:00;;;;;;;;;5.67;5.67;;;;;-147.47;100.00;64613.53;5033444;28;46014;-74
2022/04/17 01:55:27;;;;;;;;;5.67;4.67;;;;;-147.47;100.00;64613.53;5033181;28;45691;-73
2022/04/17 01:57:53;;;;;;;;;5.00;5.00;;;;;-147.47;100.00;64613.53;5033667;28;45722;-74
2022/04/17 02:00:22;;;;;;;;;6.00;6.00;;;;;-147.47;100.00;64613.53;5032214;28;45339;-73
2022/04/17 02:02:48;;;;;;;;;6.00;6.00;;;;;-147.47;100.00;64613.53;5033339;28;46230;-73
2022/04/17 02:05:14;;;;;;;;;7.00;6.00;;;;;-147.47;100.00;64613.53;5033700;28;45442;-74
2022/04/17 02:07:42;;;;;;;;;7.00;6.00;;;;;-147.47;100.00;64613.53;5033682;28;45797;-74
2022/04/17 02:10:08;;;;;;;;;5.00;5.00;;;;;-147.47;100.00;64613.53;5032546;28;45695;-72
2022/04/17 02:12:34;;;;;;;;;5.33;5.00;;;;;-147.47;100.00;64613.53;5032927;28;46355;-72
2022/04/17 02:15:00;;;;;;;;;6.33;6.00;;;;;-147.47;100.00;64613.53;5033203;28;45385;-73
2022/04/17 02:17:25;;;;;;;;;5.33;5.33;;;;;-147.47;100.00;64613.53;5033100;28;45342;-73
2022/04/17 02:19:51;;;;;;;;;5.67;5.67;;;;;-147.47;100.00;64613.53;5033448;28;45366;-72
2022/04/17 02:22:17;;;;;;;;;6.00;5.00;;;;;-147.47;100.00;64613.53;5033505;28;45691;-73
2022/04/17 02:24:43;;;;;;;;;7.33;7.33;;;;;-147.47;100.00;64613.53;5015747;28;45378;-73
2022/04/17 02:27:08;;;;;;;;;6.33;5.67;;;;;-147.47;100.00;64613.53;5033361;28;45473;-73
2022/04/17 02:29:34;;;;;;;;;5.00;5.00;;;;;-147.47;100.00;64613.53;5048751;28;45420;-72
2022/04/17 02:31:59;;;;;;;;;6.00;6.00;;;;;-147.47;100.00;64613.53;5048380;28;47551;-72
2022/04/17 02:34:25;;;;;;;;;10.00;7.00;;;;;-147.47;100.00;64613.53;5048886;28;45877;-73
2022/04/17 02:36:50;;;;;;;;;8.33;7.00;;;;;-147.47;100.00;64613.53;5032073;28;45438;-73
2022/04/17 02:39:16;;;;;;;;;6.00;6.00;;;;;-147.47;100.00;64613.53;5032712;28;45427;-73
2022/04/17 02:41:41;;;;;;;;;6.00;6.00;;;;;-147.47;100.00;64613.53;5032907;28;45695;-73
2022/04/17 02:44:07;;;;;;;;;8.00;7.00;;;;;-147.47;100.00;64613.53;5033072;28;45750;-73
2022/04/17 02:49:16;;;;;;;;;8.00;7.00;;;;;-147.47;100.00;64613.53;5017942;28;45377;-74
2022/04/17 02:51:42;;;;;;;;;7.33;7.00;;;;;-147.47;100.00;64613.53;5032814;28;45513;-72
2022/04/17 02:54:07;;;;;;;;;6.00;5.67;;;;;-147.47;100.00;64613.53;5032962;28;45785;-73
2022/04/17 02:56:33;;;;;;;;;6.00;6.00;;;;;-147.47;100.00;64613.53;5032716;28;45466;-74
2022/04/17 02:58:58;;;;;;;;;4.33;4.00;;;;;-147.47;100.00;64613.53;5031827;28;45552;-74
2022/04/17 03:06:52;;;;;;;;;7.00;6.00;;;;;-147.47;100.00;64613.53;5053509;28;45390;-73
2022/04/17 03:09:18;;;;;;;;;6.33;6.33;;;;;-147.47;100.00;64613.53;5039447;28;45420;-73
2022/04/17 03:11:44;;;;;;;;;6.33;6.33;;;;;-147.47;100.00;64613.53;5035893;28;45753;-73
2022/04/17 03:14:09;;;;;;;;;6.67;6.00;;;;;-147.47;100.00;64613.53;5035834;28;45386;-73
2022/04/17 03:16:36;;;;;;;;;6.00;5.00;;;;;-147.47;100.00;64613.53;5037111;28;45464;-74
2022/04/17 03:19:01;;;;;;;;;5.00;5.00;;;;;-147.47;100.00;64613.53;5035314;28;46891;-73
2022/04/17 03:21:27;;;;;;;;;5.67;4.67;;;;;-147.47;100.00;64613.53;5037011;28;46035;-74
2022/04/17 03:23:52;;;;;;;;;5.67;4.33;;;;;-147.47;100.00;64613.53;5036287;28;45323;-74
2022/04/17 03:26:18;;;;;;;;;7.00;7.00;;;;;-147.47;100.00;64613.53;5037245;28;45568;-73
2022/04/17 03:28:43;;;;;;;;;6.00;6.00;;;;;-147.47;100.00;64613.53;5036269;28;45910;-73
2022/04/17 03:31:09;;;;;;;;;5.00;5.00;;;;;-147.47;100.00;64613.53;5036153;28;45352;-72
2022/04/17 03:33:35;;;;;;;;;5.00;5.00;;;;;-147.47;100.00;64613.53;5036255;28;45438;-73
2022/04/17 03:36:00;;;;;;;;;4.00;4.00;;;;;-147.47;100.00;64613.53;5035691;28;45769;-73
2022/04/17 03:38:25;;;;;;;;;6.00;5.00;;;;;-147.47;100.00;64613.53;5035569;28;45265;-74
2022/04/17 03:40:51;;;;;;;;;8.00;6.00;;;;;-147.47;100.00;64613.53;5032571;28;46087;-73
2022/04/17 03:43:16;;;;;;;;;5.00;4.33;;;;;-147.47;100.00;64613.53;5034410;28;45784;-73
2022/04/17 03:45:46;;;;;;;;;7.67;5.00;;;;;-147.47;100.00;64613.53;5035504;28;45810;-72
2022/04/17 03:48:13;;;;;;;;;7.00;6.67;;;;;-147.47;100.00;64613.53;5035511;28;45678;-73
2022/04/17 03:50:38;;;;;;;;;5.33;5.33;;;;;-147.47;100.00;64613.53;5035253;28;45924;-73
2022/04/17 03:53:04;;;;;;;;;3.67;3.67;;;;;-147.47;100.00;64613.53;5017963;28;45410;-73
2022/04/17 03:55:29;;;;;;;;;4.33;3.33;;;;;-147.47;100.00;64613.53;5035700;28;45736;-73
2022/04/17 03:57:55;;;;;;;;;4.00;4.00;;;;;-147.47;100.00;64613.53;5035733;28;45432;-74
2022/04/17 04:00:20;;;;;;;;;5.67;5.00;;;;;-147.47;100.00;64613.53;5035193;28;45978;-74
2022/04/17 04:02:51;;;;;;;;;6.00;6.00;;;;;-147.47;100.00;64613.53;5018400;28;45806;-74
2022/04/17 04:05:18;;;;;;;;;6.67;6.00;;;;;-147.47;100.00;64613.53;5036075;28;45319;-72
2022/04/17 04:07:43;;;;;;;;;6.00;5.67;;;;;-147.47;100.00;64613.53;5034962;28;45610;-72
2022/04/17 04:10:09;;;;;;;;;6.00;6.00;;;;;-147.47;100.00;64613.53;5035480;28;45840;-72
2022/04/17 04:12:37;;;;;;;;;4.00;4.00;;;;;-147.47;100.00;64613.53;5035962;28;45679;-75
2022/04/17 04:15:03;;;;;;;;;8.00;4.67;;;;;-147.47;100.00;64613.53;5035068;28;45680;-73
2022/04/17 04:17:29;;;;;;;;;5.33;5.33;;;;;-147.47;100.00;64613.53;5034645;28;45474;-72
2022/04/17 04:19:54;;;;;;;;;6.00;5.00;;;;;-147.47;100.00;64613.53;5035085;28;45671;-71
2022/04/17 04:22:21;;;;;;;;;5.33;5.00;;;;;-147.47;100.00;64613.53;5034497;28;45335;-71
2022/04/17 04:24:48;;;;;;;;;5.67;4.00;;;;;-147.47;100.00;64613.53;5036364;28;45636;-73
2022/04/17 04:29:57;;;;;;;;;6.00;6.00;;;;;-147.47;100.00;64613.53;5035861;28;45323;-72
2022/04/17 04:32:23;;;;;;;;;7.67;6.00;;;;;-147.47;100.00;64613.53;5034912;28;45244;-74
2022/04/17 04:34:49;;;;;;;;;6.00;6.00;;;;;-147.47;100.00;64613.53;5035004;28;45707;-74
2022/04/17 04:37:14;;;;;;;;;7.00;6.33;;;;;-147.47;100.00;64613.53;5033001;28;45472;-71
2022/04/17 04:39:40;;;;;;;;;5.67;4.33;;;;;-147.47;100.00;64613.53;5034446;28;45307;-71
2022/04/17 04:42:07;;;;;;;;;5.33;4.33;;;;;-147.47;100.00;64613.53;5016712;28;45756;-70
2022/04/17 04:44:32;;;;;;;;;8.33;6.67;;;;;-147.47;100.00;64613.53;5016793;28;45419;-71
2022/04/17 04:46:58;;;;;;;;;6.67;6.00;;;;;-147.47;100.00;64613.53;5016896;28;45417;-71
2022/04/17 04:49:29;;;;;;;;;7.00;5.00;;;;;-147.47;100.00;64613.53;5034459;28;45875;-70
2022/04/17 04:51:55;;;;;;;;;6.33;5.33;;;;;-147.47;100.00;64613.53;5034500;28;45424;-69
2022/04/17 04:54:20;;;;;;;;;6.00;6.00;;;;;-147.47;100.00;64613.53;5033660;28;45631;-70
2022/04/17 04:56:45;;;;;;;;;6.67;5.67;;;;;-147.47;100.00;64613.53;5034559;28;45370;-71
2022/04/17 04:59:11;;;;;;;;;6.00;6.00;;;;;-147.47;100.00;64613.53;5034438;28;46007;-71
2022/04/17 05:01:36;;;;;;;;;5.67;4.67;;;;;-147.47;100.00;64613.53;5052870;28;45699;-70
2022/04/17 05:04:02;;;;;;;;;6.00;4.67;;;;;-147.47;100.00;64613.53;5054763;28;45502;-70
2022/04/17 05:06:28;;;;;;;;;5.67;5.67;;;;;-147.47;100.00;64613.53;5054573;28;45436;-70
2022/04/17 05:08:53;;;;;;;;;5.33;5.00;;;;;-147.47;100.00;64613.53;5054241;28;45521;-71
2022/04/17 05:11:20;;;;;;;;;6.00;5.00;;;;;-147.47;100.00;64613.53;5054383;28;45791;-69
2022/04/17 05:13:45;;;;;;;;;6.67;6.67;;;;;-147.47;100.00;64613.53;5054458;28;45467;-71
2022/04/17 05:16:11;;;;;;;;;5.67;5.33;;;;;-147.47;100.00;64613.53;5054741;28;45706;-70
2022/04/17 05:18:36;;;;;;;;;6.00;6.00;;;;;-147.47;100.00;64613.53;5054221;28;45686;-71
2022/04/17 05:21:02;;;;;;;;;5.00;5.00;;;;;-147.47;100.00;64613.53;5054290;28;45342;-71
2022/04/17 05:23:31;;;;;;;;;8.00;5.33;;;;;-147.47;100.00;64613.53;5054177;28;45314;-71
2022/04/17 05:25:58;;;;;;;;;6.33;5.33;;;;;-147.47;100.00;64613.53;5037060;28;45337;-70
2022/04/17 05:28:24;;;;;;;;;3.67;3.67;;;;;-147.47;100.00;64613.53;5033757;28;45374;-70
2022/04/17 05:30:50;;;;;;;;;7.00;7.00;;;;;-147.47;100.00;64613.53;5033901;28;45297;-72
2022/04/17 05:33:20;;;;;;;;;5.33;3.67;;;;;-147.47;100.00;64613.53;5015693;28;45302;-70
2022/04/17 05:35:46;;;;;;;;;5.67;4.00;;;;;-147.47;100.00;64613.53;5033141;28;45457;-71
2022/04/17 05:38:12;;;;;;;;;6.67;5.00;;;;;-147.47;100.00;64613.53;5033443;28;45394;-70
2022/04/17 05:40:40;;;;;;;;;4.67;3.33;;;;;-147.47;100.00;64613.53;5034189;28;45653;-70
2022/04/17 05:43:06;;;;;;;;;3.67;3.33;;;;;-147.47;100.00;64613.53;5034818;28;45493;-69
2022/04/17 05:45:32;;;;;;;;;5.33;5.33;;;;;-147.47;100.00;64613.53;5034568;28;45707;-70
2022/04/17 05:47:58;;;;;;;;;8.33;6.33;;;;;-147.47;100.00;64613.53;5035401;28;45950;-70
2022/04/17 05:50:24;;;;;;;;;4.00;4.00;;;;;-147.47;100.00;64613.53;5036718;28;45767;-71
2022/04/17 05:52:49;;;;;;;;;4.33;3.33;;;;;-147.47;100.00;64613.53;5036653;28;45795;-68
2022/04/17 05:55:15;;;;;;;;;3.00;3.00;;;;;-147.47;100.00;64613.53;5036492;28;45423;-69
2022/04/17 05:57:41;;;;;;;;;6.67;4.00;;;;;-147.47;100.00;64613.53;5037282;28;45737;-72
2022/04/17 06:00:08;;;;;;;;;2.67;2.33;;;;;-147.47;100.00;64613.53;5025138;28;45830;-71
2022/04/17 06:02:38;;;;;;;;;4.67;4.00;;;;;-147.47;100.00;64613.53;5039116;28;45792;-70
2022/04/17 06:05:04;;;;;;;;;4.67;4.67;;;;;-147.47;100.00;64613.53;5037067;28;45413;-70
2022/04/17 06:07:30;;;;;;;;;4.00;4.00;;;;;-147.47;100.00;64613.53;5035634;28;47164;-70
2022/04/17 06:09:55;;;;;;;;;5.00;5.00;;;;;-147.47;100.00;64613.53;5036581;28;45548;-72
2022/04/17 06:12:21;;;;;;;;;4.67;4.67;;;;;-147.47;100.00;64613.53;5017718;28;45516;-72
2022/04/17 06:14:46;;;;;;;;;4.33;4.33;;;;;-147.47;100.00;64613.53;5035926;28;45563;-72
2022/04/17 06:17:12;;;;;;;;;7.33;4.00;;;;;-147.47;100.00;64613.53;5036813;28;45635;-72
2022/04/17 06:19:37;;;;;;;;;5.00;5.00;;;;;-147.47;100.00;64613.53;5035952;28;45481;-73
2022/04/17 06:22:04;;;;;;;;;3.00;3.00;;;;;-147.47;100.00;64613.53;5035722;28;45690;-71
2022/04/17 06:24:29;;;;;;;;;3.00;3.00;;;;;-147.47;100.00;64613.53;5017878;28;45959;-72
2022/04/17 06:26:55;;;;;;;;;8.67;8.67;;;;;-147.47;100.00;64613.53;5035173;28;45328;-71
2022/04/17 06:29:20;;;;;;;;;4.00;4.00;;;;;-147.47;100.00;64613.53;5034664;28;46047;-71
2022/04/17 06:31:46;;;;;;;;;5.00;3.00;;;;;-147.47;100.00;64613.53;5035828;28;45637;-73
2022/04/17 06:34:12;;;;;;;;;6.33;4.33;;;;;-147.47;100.00;64613.53;5035970;28;45362;-73
2022/04/17 06:36:39;;;;;;;;;4.33;4.33;;;;;-147.47;100.00;64613.53;5035347;28;45612;-72
2022/04/17 06:39:05;;;;;;;;;4.00;4.00;;;;;-147.47;100.00;64613.53;5035541;28;45822;-71
2022/04/17 06:41:30;;;;;;;;;4.00;4.00;;;;;-147.47;100.00;64613.53;5031946;28;45662;-72
2022/04/17 06:43:56;;;;;;;;;5.33;5.33;;;;;-147.47;100.00;64613.53;5032843;28;45556;-70
2022/04/17 06:46:21;;;;;;;;;4.00;4.00;;;;;-147.47;100.00;64613.53;5036344;28;45724;-73
2022/04/17 06:48:47;;;;;;;;;3.33;3.33;;;;;-147.47;100.00;64613.53;5037803;28;45616;-75
2022/04/17 06:51:13;;;;;;;;;3.67;3.67;;;;;-147.47;100.00;64613.53;5037679;28;45456;-73
2022/04/17 06:53:38;;;;;;;;;5.00;4.00;;;;;-147.47;100.00;64613.53;5036134;28;45413;-72
2022/04/17 06:56:04;;;;;;;;;6.00;5.00;;;;;-147.47;100.00;64613.53;5018432;28;48154;-71
2022/04/17 06:58:30;;;;;;;;;4.33;4.33;;;;;-147.47;100.00;64613.53;5036418;28;45679;-72
2022/04/17 07:00:55;;;;;;;;;7.00;7.00;;;;;-147.47;100.00;64613.53;5028267;28;45685;-71
2022/04/17 07:03:21;;;;;;;;;3.67;3.67;;;;;-147.47;100.00;64613.53;5056606;28;45312;-75
2022/04/17 07:05:46;;;;;;;;;4.00;4.00;;;;;-147.47;100.00;64613.53;5057153;28;46008;-74
2022/04/17 07:08:12;;;;;;;;;8.00;6.00;;;;;-147.47;100.00;64613.53;5039215;28;45655;-74
2022/04/17 07:10:39;;;;;;;;;6.00;5.00;;;;;-147.47;100.00;64613.53;5057166;28;45346;-74
2022/04/17 07:13:06;;;;;;;;;5.33;4.33;;;;;-147.47;100.00;64613.53;5039586;28;45408;-74
2022/04/17 07:15:32;;;;;;;;;6.00;5.67;;;;;-147.47;100.00;64613.53;5056986;28;46410;-74
2022/04/17 07:17:58;;;;;;;;;7.00;5.33;;;;;-147.47;100.00;64613.53;5065106;28;45425;-73
2022/04/17 07:20:26;;;;;;;;;4.33;3.33;;;;;-147.47;100.00;64613.53;5058294;28;45663;-72
2022/04/17 07:22:52;;;;;;;;;5.00;5.00;;;;;-147.47;100.00;64613.53;5038592;28;46218;-71
2022/04/17 07:25:18;;;;;;;;;5.33;4.33;;;;;-147.47;100.00;64613.53;5038283;28;45430;-72
2022/04/17 07:27:46;;;;;;;;;5.33;5.33;;;;;-147.47;100.00;64613.53;5036801;28;45384;-71
2022/04/17 07:30:22;;;;;;;;;5.00;5.00;;;;;-147.47;100.00;64613.53;5037287;28;45412;-70
2022/04/17 07:33:02;;;;;;;;;3.33;3.33;;;;;-147.47;100.00;64613.53;5036309;28;45710;-71
2022/04/17 07:35:28;;;;;;;;;4.67;4.67;;;;;-147.47;100.00;64613.53;5035323;28;47458;-72
2022/04/17 07:37:57;;;;;;;;;4.00;3.67;;;;;-147.47;100.00;64613.53;5036506;28;45351;-72
2022/04/17 07:40:36;;;;;;;;;6.67;6.67;;;;;-147.47;100.00;64613.53;5033582;28;45909;-73
2022/04/17 07:43:04;;;;;;;;;4.67;4.67;;;;;-147.47;100.00;64613.53;5036182;28;45450;-74
2022/04/17 07:45:31;;;;;;;;;6.33;5.33;;;;;-147.47;100.00;64613.53;5019462;28;48389;-72
2022/04/17 07:47:57;;;;;;;;;6.00;6.00;;;;;-147.47;100.00;64613.53;5019027;28;45328;-73
2022/04/17 07:50:29;;;;;;;;;7.00;5.33;;;;;-147.47;100.00;64613.53;5035666;28;45423;-74
2022/04/17 07:53:00;;;;;;;;;6.33;6.00;;;;;-147.47;100.00;64613.53;5036725;28;45355;-72
2022/04/17 07:55:27;;;;;;;;;8.00;8.00;;;;;-147.47;100.00;64613.53;5015755;28;45372;-74
2022/04/17 08:00:24;;;;;;;;;4.67;4.67;;;;;-147.47;100.00;64613.53;5031167;28;45415;-74
2022/04/17 08:02:55;;;;;;;;;5.67;4.67;;;;;-147.47;100.00;64613.53;5055086;28;45708;-74
2022/04/17 08:05:24;;;;;;;;;6.00;6.00;;;;;-147.47;100.00;64613.53;5055493;28;45479;-75
2022/04/17 08:07:51;;;;;;;;;8.00;6.00;;;;;-147.47;100.00;64613.53;5055318;28;45785;-74
2022/04/17 08:10:17;;;;;;;;;4.33;4.33;;;;;-147.47;100.00;64613.53;5055793;28;45326;-73
2022/04/17 08:12:43;;;;;;;;;9.67;7.00;;;;;-147.47;100.00;64613.53;5056353;28;45755;-73
2022/04/17 08:15:08;;;;;;;;;5.67;5.00;;;;;-147.47;100.00;64613.53;5056053;28;45256;-74
2022/04/17 08:17:35;;;;;;;;;4.67;4.33;;;;;-147.47;100.00;64613.53;5055921;28;45436;-74
2022/04/17 08:20:01;;;;;;;;;5.00;5.00;;;;;-147.47;100.00;64613.53;5056786;28;45677;-74
2022/04/17 08:22:26;;;;;;;;;5.00;5.00;;;;;-147.47;100.00;64613.53;5057229;28;45784;-76
2022/04/17 08:24:51;;;;;;;;;7.00;5.67;;;;;-147.47;100.00;64613.53;5037437;28;45318;-74
2022/04/17 08:27:17;;;;;;;;;7.33;5.33;;;;;-147.47;100.00;64613.53;5017623;28;45326;-74
2022/04/17 08:29:42;;;;;;;;;5.33;5.00;;;;;-147.47;100.00;64613.53;5035834;28;46000;-75
2022/04/17 08:32:08;;;;;;;;;5.00;5.00;;;;;-147.47;100.00;64613.53;5035220;28;45433;-73
2022/04/17 08:34:33;;;;;;;;;5.33;5.00;;;;;-147.47;100.00;64613.53;5034583;28;45792;-74
2022/04/17 08:36:59;;;;;;;;;6.33;5.00;;;;;-147.47;100.00;64613.53;5018422;28;45924;-74
2022/04/17 08:39:26;;;;;;;;;7.00;7.00;;;;;-147.47;100.00;64613.53;5035269;28;45584;-73
2022/04/17 08:41:54;;;;;;;;;9.67;8.67;;;;;-147.47;100.00;64613.53;5035213;28;45300;-73
2022/04/17 08:44:21;;;;;;;;;4.67;4.33;;;;;-147.47;100.00;64613.53;5016493;28;46797;-72
2022/04/17 08:46:47;;;;;;;;;5.00;4.67;;;;;-147.47;100.00;64613.53;5034159;28;45435;-72
2022/04/17 08:49:13;;;;;;;;;14.33;11.00;;;;;-147.47;100.00;64613.53;5031416;28;45439;-72
2022/04/17 08:51:39;;;;;;;;;7.67;7.33;;;;;-147.47;100.00;64613.53;5016248;28;46935;-71
2022/04/17 08:54:06;;;;;;;;;9.67;8.67;;;;;-147.47;100.00;64613.53;5016617;28;45576;-73
2022/04/17 08:56:34;;;;;;;;;4.67;4.67;;;;;-147.47;100.00;64613.53;5036032;28;45408;-74
2022/04/17 08:59:00;;;;;;;;;6.00;5.00;;;;;-147.47;100.00;64613.53;5000895;28;45624;-71
2022/04/17 09:01:26;;;;;;;;;4.00;4.00;;;;;-147.47;100.00;64613.53;5045410;28;45484;-69
2022/04/17 09:03:52;;;;;;;;;6.00;5.00;;;;;-147.47;100.00;64613.53;5034858;28;45457;-71
2022/04/17 09:06:20;;;;;;;;;4.33;4.33;;;;;-147.47;100.00;64613.53;5035300;28;45676;-73
2022/04/17 09:09:19;;;;;;;;;8.67;8.33;;;;;-147.47;100.00;64613.53;5034746;28;45418;-71
2022/04/17 09:11:44;;;;;;;;;4.33;4.33;;;;;-147.47;100.00;64613.53;5021927;28;46873;-73
2022/04/17 09:14:10;;;;;;;;;6.00;3.00;;;;;-147.47;100.00;64613.53;5034111;28;45490;-70
2022/04/17 09:16:38;;;;;;;;;6.50;6.50;;;;;-147.47;100.00;64613.53;5034419;28;45429;-74
2022/04/17 09:19:18;;;;;;;;;5.25;4.00;;;;;-147.47;100.00;64613.53;5034846;28;45682;-71
2022/04/17 09:21:43;;;;;;;;;6.33;6.33;;;;;-147.47;100.00;64613.53;5034874;28;45731;-71
2022/04/17 09:24:21;;;;;;;;;8.67;4.67;;;;;-147.47;100.00;64613.53;5033733;28;45622;-73
2022/04/17 09:26:49;;;;;;;;;4.25;4.25;;;;;-147.47;100.00;64613.53;5032944;28;45368;-71
2022/04/17 09:29:23;;;;;;;;;3.00;3.00;;;;;-147.47;100.00;64613.53;5034266;28;45679;-71
2022/04/17 09:32:01;;;;;;;;;4.33;4.33;;;;;-147.47;100.00;64613.53;5034109;28;46927;-73
2022/04/17 09:34:47;;;;;;;;;4.00;4.00;;;;;-147.47;100.00;64613.53;5035356;28;45716;-75
2022/04/17 09:37:17;;;;;;;;;4.67;4.00;;;;;-147.47;100.00;64613.53;5017442;28;45509;-75
2022/04/17 09:39:44;;;;;;;;;5.00;5.00;;;;;-147.47;100.00;64613.53;5034501;28;45382;-75
2022/04/17 09:42:10;;;;;;;;;2.75;2.75;;;;;-147.47;100.00;64613.53;5033832;28;45961;-73
2022/04/17 09:44:51;;;;;;;;;6.00;6.00;;;;;-147.47;100.00;64613.53;5033905;28;47046;-72
2022/04/17 09:47:29;;;;;;;;;4.50;4.50;;;;;-147.47;100.00;64613.53;5037235;28;45336;-73
2022/04/17 09:50:05;;;;;;;;;4.75;4.25;;;;;-147.47;100.00;64613.53;5035290;28;45663;-71
2022/04/17 09:52:33;;;;;;;;;4.50;4.00;;;;;-147.47;100.00;64613.53;5034485;28;45655;-71
2022/04/17 09:55:00;;;;;;;;;3.25;3.25;;;;;-147.47;100.00;64613.53;5036840;28;46072;-74
2022/04/17 09:57:29;;;;;;;;;5.25;4.25;;;;;-147.47;100.00;64613.53;5036776;28;45789;-73
2022/04/17 09:59:56;;;;;;;;;3.50;3.50;;;;;-147.47;100.00;64613.53;5037830;28;45336;-72
2022/04/17 10:02:25;;;;;;;;;5.75;4.00;;;;;-147.47;100.00;64613.53;5054988;28;45844;-73
2022/04/17 10:04:51;;;;;;;;;3.25;3.25;;;;;-147.47;100.00;64613.53;5055470;28;45803;-73
2022/04/17 10:07:19;;;;;;;;;9.67;8.33;;;;;-147.47;100.00;64613.53;5056108;28;45762;-73
2022/04/17 10:09:48;;;;;;;;;6.25;5.25;;;;;-147.47;100.00;64613.53;5056339;28;45423;-72
2022/04/17 10:12:19;;;;;;;;;3.50;3.50;;;;;-147.47;100.00;64613.53;5040804;28;45492;-72
2022/04/17 10:14:55;;;;;;;;;3.25;3.25;;;;;-147.47;100.00;64613.53;5034810;28;45671;-72
2022/04/17 10:17:22;;;;;;;;;4.25;3.00;;;;;-147.47;100.00;64613.53;5035252;28;45374;-71
2022/04/17 10:19:49;;;;;;;;;3.75;2.25;;;;;-147.47;100.00;64613.53;5036010;28;45287;-71
2022/04/17 10:22:18;;;;;;;;;2.50;2.50;;;;;-147.47;100.00;64613.53;5042801;28;45434;-71
2022/04/17 10:24:54;;;;;;;;;4.25;2.75;;;;;-147.47;100.00;64613.53;5042287;28;46046;-70
2022/04/17 10:27:26;;;;;;;;;3.00;3.00;;;;;-147.47;100.00;64613.53;5042282;28;45363;-71
2022/04/17 10:29:52;;;;;;;;;2.25;2.25;;;;;-147.47;100.00;64613.53;5041735;28;45397;-71
2022/04/17 10:32:32;;;;;;;;;3.33;3.33;;;;;-147.47;100.00;64613.53;5041087;28;45675;-73
2022/04/17 10:35:27;;;;;;;;;9.67;9.67;;;;;-147.47;100.00;64613.53;5041221;28;46254;-71
2022/04/17 10:37:55;;;;;;;;;3.00;3.00;;;;;-147.47;100.00;64613.53;5040706;28;45409;-71
2022/04/17 10:40:23;;;;;;;;;2.75;1.75;;;;;-147.47;100.00;64613.53;5018464;28;45520;-72
2022/04/17 10:42:57;;;;;;;;;5.25;3.25;;;;;-147.47;100.00;64613.53;5036825;28;45718;-72
2022/04/17 10:45:23;;;;;;;;;3.00;3.00;;;;;-147.47;100.00;64613.53;5040993;28;45378;-72
2022/04/17 10:48:02;;;;;;;;;4.00;4.00;;;;;-147.47;100.00;64613.53;5023547;28;45765;-72
2022/04/17 10:50:30;;;;;;;;;3.25;3.25;;;;;-147.47;100.00;64613.53;5041676;28;45367;-70
2022/04/17 10:52:56;;;;;;;;;3.50;3.50;;;;;-147.47;100.00;64613.53;5023382;28;46250;-71
2022/04/17 10:55:21;;;;;;;;;4.25;3.25;;;;;-147.47;100.00;64613.53;5040922;28;46663;-70
2022/04/17 10:57:48;;;;;;;;;2.50;2.25;;;;;-147.47;100.00;64613.53;5041150;28;45222;-71
2022/04/17 11:00:28;;;;;;;;;3.00;3.00;;;;;-147.47;100.00;64613.53;5042812;28;45372;-71
2022/04/17 11:02:55;;;;;;;;;2.00;2.00;;;;;-147.47;100.00;64613.53;5040427;28;45521;-72
2022/04/17 11:06:09;;;;;;;;;3.75;2.50;;;;;-147.47;100.00;64613.53;5040279;28;45690;-73
2022/04/17 11:08:48;;;;;;;;;2.33;2.33;;;;;-147.47;100.00;64613.53;5023130;28;45742;-73
2022/04/17 11:11:14;;;;;;;;;3.25;2.00;;;;;-147.47;100.00;64613.53;5022915;28;45446;-71
2022/04/17 11:14:19;;;;;;;;;4.25;4.00;;;;;-147.47;100.00;64613.53;5041448;28;45661;-71
2022/04/17 11:16:48;;;;;;;;;3.25;3.25;;;;;-147.47;100.00;64613.53;5036998;28;46548;-71
2022/04/17 11:19:16;;;;;;;;;3.33;2.33;;;;;-147.47;100.00;64613.53;5042683;28;45431;-70
2022/04/17 11:22:07;;;;;;;;;3.50;3.00;;;;;-147.47;100.00;64613.53;5025304;28;45423;-72
2022/04/17 11:24:54;;;;;;;;;3.00;3.00;;;;;-147.47;100.00;64613.53;5024894;28;47368;-73
2022/04/17 11:27:35;;;;;;;;;2.50;2.50;;;;;-147.47;100.00;64613.53;5040054;28;45704;-72
2022/04/17 11:30:03;;;;;;;;;3.67;2.67;;;;;-147.47;100.00;64613.53;5040152;28;45441;-72